sensor_id;sensor_type;location;lat;lon;timestamp;pressure;altitude;pressure_sealevel;temperature;humidity
51043;BME280;37078;45.806;9.084;2022-09-28T00:00:28;97636.59;;;22.68;47.51
51043;BME280;37078;45.806;9.084;2022-09-28T00:02:54;97631.50;;;22.66;47.36
51043;BME280;37078;45.806;9.084;2022-09-28T00:05:22;97627.53;;;22.64;47.24
51043;BME280;37078;45.806;9.084;2022-09-28T00:07:48;97639.19;;;22.64;47.23
51043;BME280;37078;45.806;9.084;2022-09-28T00:10:14;97649.03;;;22.69;47.16
51043;BME280;37078;45.806;9.084;2022-09-28T00:12:40;97642.25;;;22.63;47.17
51043;BME280;37078;45.806;9.084;2022-09-28T00:15:06;97650.19;;;22.68;47.10
51043;BME280;37078;45.806;9.084;2022-09-28T00:17:32;97650.19;;;22.68;47.26
51043;BME280;37078;45.806;9.084;2022-09-28T00:19:58;97648.59;;;22.67;47.23
51043;BME280;37078;45.806;9.084;2022-09-28T00:22:23;97644.63;;;22.64;47.23
51043;BME280;37078;45.806;9.084;2022-09-28T00:24:48;97649.72;;;22.66;47.28
51043;BME280;37078;45.806;9.084;2022-09-28T00:27:14;97646.56;;;22.64;47.36
51043;BME280;37078;45.806;9.084;2022-09-28T00:29:39;97649.25;;;22.64;47.30
51043;BME280;37078;45.806;9.084;2022-09-28T00:32:09;97645.75;;;22.63;47.22
51043;BME280;37078;45.806;9.084;2022-09-28T00:34:40;97641.91;;;22.64;47.20
51043;BME280;37078;45.806;9.084;2022-09-28T00:37:08;97644.63;;;22.64;47.23
51043;BME280;37078;45.806;9.084;2022-09-28T00:39:34;97645.63;;;22.60;47.30
51043;BME280;37078;45.806;9.084;2022-09-28T00:42:01;97647.69;;;22.63;47.16
51043;BME280;37078;45.806;9.084;2022-09-28T00:44:32;97645.75;;;22.63;47.21
51043;BME280;37078;45.806;9.084;2022-09-28T00:49:48;97654.25;;;22.62;47.14
51043;BME280;37078;45.806;9.084;2022-09-28T00:52:21;97654.25;;;22.62;47.10
51043;BME280;37078;45.806;9.084;2022-09-28T00:54:47;97644.41;;;22.57;47.25
51043;BME280;37078;45.806;9.084;2022-09-28T00:57:15;97651.53;;;22.62;47.14
51043;BME280;37078;45.806;9.084;2022-09-28T00:59:41;97640.56;;;22.58;47.20
51043;BME280;37078;45.806;9.084;2022-09-28T01:02:07;97638.19;;;22.57;47.10
51043;BME280;37078;45.806;9.084;2022-09-28T01:04:35;97640.56;;;22.58;47.09
51043;BME280;37078;45.806;9.084;2022-09-28T01:07:02;97638.97;;;22.57;47.08
51043;BME280;37078;45.806;9.084;2022-09-28T01:09:27;97641.34;;;22.59;47.11
51043;BME280;37078;45.806;9.084;2022-09-28T01:11:54;97643.28;;;22.58;47.13
51043;BME280;37078;45.806;9.084;2022-09-28T01:14:21;97626.41;;;22.52;47.13
51043;BME280;37078;45.806;9.084;2022-09-28T01:17:04;97633.53;;;22.57;47.15
51043;BME280;37078;45.806;9.084;2022-09-28T01:30:04;97638.19;;;22.57;47.17
51043;BME280;37078;45.806;9.084;2022-09-28T01:35:24;97626.41;;;22.52;47.03
51043;BME280;37078;45.806;9.084;2022-09-28T01:37:56;97632.28;;;22.54;47.08
51043;BME280;37078;45.806;9.084;2022-09-28T01:40:26;97623.34;;;22.54;47.07
51043;BME280;37078;45.806;9.084;2022-09-28T01:43:01;97613.53;;;22.49;46.92
51043;BME280;37078;45.806;9.084;2022-09-28T01:45:34;97615.44;;;22.49;47.04
51043;BME280;37078;45.806;9.084;2022-09-28T01:48:04;97621.78;;;22.53;46.99
51043;BME280;37078;45.806;9.084;2022-09-28T01:50:35;97615.44;;;22.49;47.18
51043;BME280;37078;45.806;9.084;2022-09-28T01:53:12;97624.06;;;22.51;47.05
51043;BME280;37078;45.806;9.084;2022-09-28T01:55:43;97619.28;;;22.48;47.02
51043;BME280;37078;45.806;9.084;2022-09-28T01:58:13;97612.84;;;22.52;47.00
51043;BME280;37078;45.806;9.084;2022-09-28T02:00:45;97606.97;;;22.50;46.64
51043;BME280;37078;45.806;9.084;2022-09-28T02:04:01;97608.53;;;22.51;46.93
51043;BME280;37078;45.806;9.084;2022-09-28T02:06:23;97611.50;;;22.46;47.02
51043;BME280;37078;45.806;9.084;2022-09-28T02:08:55;97609.56;;;22.47;46.94
51043;BME280;37078;45.806;9.084;2022-09-28T02:11:22;97608.00;;;22.46;47.15
51043;BME280;37078;45.806;9.084;2022-09-28T02:18:55;97614.66;;;22.48;47.00
51043;BME280;37078;45.806;9.084;2022-09-28T02:21:43;97604.56;;;22.49;46.90
51043;BME280;37078;45.806;9.084;2022-09-28T02:24:27;97601.06;;;22.48;46.96
51043;BME280;37078;45.806;9.084;2022-09-28T02:26:58;97606.84;;;22.47;46.94
51043;BME280;37078;45.806;9.084;2022-09-28T02:29:24;97611.50;;;22.46;47.00
51043;BME280;37078;45.806;9.084;2022-09-28T02:31:50;97612.28;;;22.47;46.88
51043;BME280;37078;45.806;9.084;2022-09-28T02:34:16;97603.22;;;22.43;46.87
51043;BME280;37078;45.806;9.084;2022-09-28T02:36:42;97612.28;;;22.47;46.95
51043;BME280;37078;45.806;9.084;2022-09-28T02:39:15;97624.63;;;22.44;46.90
51043;BME280;37078;45.806;9.084;2022-09-28T02:44:48;97615.34;;;22.45;47.04
51043;BME280;37078;45.806;9.084;2022-09-28T02:47:45;97612.06;;;22.40;46.73
51043;BME280;37078;45.806;9.084;2022-09-28T03:01:11;97611.06;;;22.44;47.01
51043;BME280;37078;45.806;9.084;2022-09-28T03:04:16;97612.84;;;22.40;46.92
51043;BME280;37078;45.806;9.084;2022-09-28T03:06:52;97608.66;;;22.43;46.85
51043;BME280;37078;45.806;9.084;2022-09-28T03:09:25;97595.66;;;22.36;47.12
51043;BME280;37078;45.806;9.084;2022-09-28T03:11:56;97608.22;;;22.41;46.96
51043;BME280;37078;45.806;9.084;2022-09-28T03:14:23;97598.38;;;22.36;47.06
51043;BME280;37078;45.806;9.084;2022-09-28T03:16:48;97605.94;;;22.43;46.99
51043;BME280;37078;45.806;9.084;2022-09-28T03:19:16;97601.66;;;22.42;46.91
51043;BME280;37078;45.806;9.084;2022-09-28T03:21:42;97602.78;;;22.41;46.96
51043;BME280;37078;45.806;9.084;2022-09-28T03:24:07;97607.88;;;22.42;46.92
51043;BME280;37078;45.806;9.084;2022-09-28T03:26:36;97606.16;;;22.38;47.08
51043;BME280;37078;45.806;9.084;2022-09-28T03:29:02;97616.34;;;22.41;46.85
51043;BME280;37078;45.806;9.084;2022-09-28T03:31:27;97595.66;;;22.36;46.65
51043;BME280;37078;45.806;9.084;2022-09-28T03:33:53;97601.22;;;22.40;47.12
51043;BME280;37078;45.806;9.084;2022-09-28T03:36:18;97612.06;;;22.40;46.81
51043;BME280;37078;45.806;9.084;2022-09-28T03:38:43;97609.34;;;22.40;46.94
51043;BME280;37078;45.806;9.084;2022-09-28T03:41:09;97600.41;;;22.39;46.93
51043;BME280;37078;45.806;9.084;2022-09-28T03:43:34;97590.66;;;22.38;46.85
51043;BME280;37078;45.806;9.084;2022-09-28T03:46:00;97591.47;;;22.39;46.97
51043;BME280;37078;45.806;9.084;2022-09-28T03:48:32;97585.47;;;22.33;47.02
51043;BME280;37078;45.806;9.084;2022-09-28T03:51:00;97601.09;;;22.36;46.88
51043;BME280;37078;45.806;9.084;2022-09-28T03:53:26;97604.59;;;22.37;46.93
51043;BME280;37078;45.806;9.084;2022-09-28T03:55:53;97593.59;;;22.33;46.92
51043;BME280;37078;45.806;9.084;2022-09-28T03:58:20;97598.03;;;22.38;46.79
51043;BME280;37078;45.806;9.084;2022-09-28T04:00:46;97600.72;;;22.38;46.74
51043;BME280;37078;45.806;9.084;2022-09-28T04:03:12;97605.38;;;22.37;46.87
51043;BME280;37078;45.806;9.084;2022-09-28T04:05:37;97606.50;;;22.36;46.90
51043;BME280;37078;45.806;9.084;2022-09-28T04:08:03;97610.38;;;22.35;46.99
51043;BME280;37078;45.806;9.084;2022-09-28T04:10:28;97612.72;;;22.37;46.89
51043;BME280;37078;45.806;9.084;2022-09-28T04:12:55;97613.53;;;22.37;46.88
51043;BME280;37078;45.806;9.084;2022-09-28T04:15:24;97614.66;;;22.36;46.88
51043;BME280;37078;45.806;9.084;2022-09-28T04:17:50;97605.28;;;22.34;46.81
51043;BME280;37078;45.806;9.084;2022-09-28T04:20:15;97601.31;;;22.31;46.86
51043;BME280;37078;45.806;9.084;2022-09-28T04:22:41;97609.56;;;22.35;46.88
51043;BME280;37078;45.806;9.084;2022-09-28T04:25:07;97610.38;;;22.35;46.83
51043;BME280;37078;45.806;9.084;2022-09-28T04:27:32;97612.28;;;22.35;46.78
51043;BME280;37078;45.806;9.084;2022-09-28T04:30:16;97605.50;;;22.29;46.84
51043;BME280;37078;45.806;9.084;2022-09-28T04:32:45;97612.16;;;22.31;46.85
51043;BME280;37078;45.806;9.084;2022-09-28T04:35:11;97612.50;;;22.30;46.86
51043;BME280;37078;45.806;9.084;2022-09-28T04:37:36;97608.00;;;22.34;46.82
51043;BME280;37078;45.806;9.084;2022-09-28T04:40:02;97616.94;;;22.34;46.85
51043;BME280;37078;45.806;9.084;2022-09-28T04:42:27;97609.91;;;22.33;46.89
51043;BME280;37078;45.806;9.084;2022-09-28T04:44:53;97600.31;;;22.23;46.82
51043;BME280;37078;45.806;9.084;2022-09-28T04:47:18;97611.03;;;22.32;46.86
51043;BME280;37078;45.806;9.084;2022-09-28T04:49:43;97614.53;;;22.33;46.93
51043;BME280;37078;45.806;9.084;2022-09-28T04:52:09;97619.19;;;22.32;46.89
51043;BME280;37078;45.806;9.084;2022-09-28T04:54:34;97617.59;;;22.31;46.83
51043;BME280;37078;45.806;9.084;2022-09-28T04:57:00;97620.31;;;22.31;46.78
51043;BME280;37078;45.806;9.084;2022-09-28T04:59:27;97622.69;;;22.33;46.97
51043;BME280;37078;45.806;9.084;2022-09-28T05:01:52;97619.53;;;22.31;46.87
51043;BME280;37078;45.806;9.084;2022-09-28T05:04:18;97631.16;;;22.31;46.99
51043;BME280;37078;45.806;9.084;2022-09-28T05:06:43;97606.63;;;22.15;46.79
51043;BME280;37078;45.806;9.084;2022-09-28T05:09:09;97618.97;;;22.25;47.09
51043;BME280;37078;45.806;9.084;2022-09-28T05:11:34;97623.72;;;22.28;46.78
51043;BME280;37078;45.806;9.084;2022-09-28T05:13:59;97616.81;;;22.31;46.87
51043;BME280;37078;45.806;9.084;2022-09-28T05:16:25;97617.81;;;22.26;46.80
51043;BME280;37078;45.806;9.084;2022-09-28T05:18:57;97623.38;;;22.30;46.75
51043;BME280;37078;45.806;9.084;2022-09-28T05:21:22;97612.50;;;22.30;46.88
51043;BME280;37078;45.806;9.084;2022-09-28T05:23:49;97597.13;;;22.21;46.85
51043;BME280;37078;45.806;9.084;2022-09-28T05:26:15;97616.81;;;22.31;46.86
51043;BME280;37078;45.806;9.084;2022-09-28T05:28:41;97600.41;;;22.27;46.92
51043;BME280;37078;45.806;9.084;2022-09-28T05:31:06;97605.38;;;22.25;46.92
51043;BME280;37078;45.806;9.084;2022-09-28T05:33:32;97612.38;;;22.26;46.75
51043;BME280;37078;45.806;9.084;2022-09-28T05:35:58;97585.03;;;22.19;46.77
51043;BME280;37078;45.806;9.084;2022-09-28T05:38:24;97603.34;;;22.34;46.99
51043;BME280;37078;45.806;9.084;2022-09-28T05:40:49;97605.59;;;22.32;47.03
51043;BME280;37078;45.806;9.084;2022-09-28T05:43:15;97602.56;;;22.34;47.35
51043;BME280;37078;45.806;9.084;2022-09-28T05:45:40;97600.63;;;22.34;47.40
51043;BME280;37078;45.806;9.084;2022-09-28T05:48:06;97606.88;;;22.35;47.40
51043;BME280;37078;45.806;9.084;2022-09-28T05:50:31;97610.38;;;22.35;47.64
51043;BME280;37078;45.806;9.084;2022-09-28T05:53:01;97608.22;;;22.41;47.80
51043;BME280;37078;45.806;9.084;2022-09-28T05:55:27;97606.16;;;22.38;47.71
51043;BME280;37078;45.806;9.084;2022-09-28T05:57:57;97614.00;;;22.39;47.81
51043;BME280;37078;45.806;9.084;2022-09-28T06:00:22;97618.28;;;22.40;47.91
51043;BME280;37078;45.806;9.084;2022-09-28T06:03:01;97620.22;;;22.40;47.96
51043;BME280;37078;45.806;9.084;2022-09-28T06:05:27;97615.09;;;22.38;47.92
51043;BME280;37078;45.806;9.084;2022-09-28T06:07:57;97615.91;;;22.39;47.75
51043;BME280;37078;45.806;9.084;2022-09-28T06:10:24;97599.50;;;22.35;47.76
51043;BME280;37078;45.806;9.084;2022-09-28T06:12:53;97610.81;;;22.37;47.57
51043;BME280;37078;45.806;9.084;2022-09-28T06:15:20;97607.66;;;22.35;47.43
51043;BME280;37078;45.806;9.084;2022-09-28T06:17:46;97610.38;;;22.35;47.50
51043;BME280;37078;45.806;9.084;2022-09-28T06:20:11;97609.56;;;22.35;47.39
51043;BME280;37078;45.806;9.084;2022-09-28T06:22:37;97605.72;;;22.36;47.31
51043;BME280;37078;45.806;9.084;2022-09-28T06:25:03;97604.81;;;22.32;47.23
51043;BME280;37078;45.806;9.084;2022-09-28T06:27:29;97595.44;;;22.29;47.26
51043;BME280;37078;45.806;9.084;2022-09-28T06:29:54;97605.72;;;22.36;47.24
51043;BME280;37078;45.806;9.084;2022-09-28T06:32:20;97602.22;;;22.35;47.38
51043;BME280;37078;45.806;9.084;2022-09-28T06:34:45;97600.28;;;22.36;47.11
51043;BME280;37078;45.806;9.084;2022-09-28T06:37:10;97599.50;;;22.35;46.88
51043;BME280;37078;45.806;9.084;2022-09-28T06:39:36;97592.03;;;22.32;47.04
51043;BME280;37078;45.806;9.084;2022-09-28T06:42:01;97585.81;;;22.32;47.01
51043;BME280;37078;45.806;9.084;2022-09-28T06:44:28;97594.88;;;22.36;46.99
51043;BME280;37078;45.806;9.084;2022-09-28T06:46:54;97602.56;;;22.34;47.22
51043;BME280;37078;45.806;9.084;2022-09-28T06:49:22;97602.91;;;22.44;47.36
51043;BME280;37078;45.806;9.084;2022-09-28T06:51:48;97603.00;;;22.48;47.39
51043;BME280;37078;45.806;9.084;2022-09-28T06:54:13;97598.47;;;22.52;47.42
51043;BME280;37078;45.806;9.084;2022-09-28T06:56:39;97599.38;;;22.56;47.42
51043;BME280;37078;45.806;9.084;2022-09-28T06:59:04;97580.13;;;22.49;47.36
51043;BME280;37078;45.806;9.084;2022-09-28T07:01:30;97596.44;;;22.61;47.29
51043;BME280;37078;45.806;9.084;2022-09-28T07:03:55;97601.28;;;22.68;47.28
51043;BME280;37078;45.806;9.084;2022-09-28T07:06:22;97597.66;;;22.64;47.33
51043;BME280;37078;45.806;9.084;2022-09-28T07:08:48;97608.75;;;22.71;47.44
51043;BME280;37078;45.806;9.084;2022-09-28T07:11:14;97613.50;;;22.74;47.22
51043;BME280;37078;45.806;9.084;2022-09-28T07:13:40;97619.38;;;22.76;47.27
51043;BME280;37078;45.806;9.084;2022-09-28T07:16:05;97627.50;;;22.76;47.30
51043;BME280;37078;45.806;9.084;2022-09-28T07:18:31;97621.84;;;22.81;47.27
51043;BME280;37078;45.806;9.084;2022-09-28T07:20:57;97633.19;;;22.83;47.20
51043;BME280;37078;45.806;9.084;2022-09-28T07:23:23;97630.34;;;22.79;47.32
51043;BME280;37078;45.806;9.084;2022-09-28T07:25:52;97634.56;;;22.89;47.21
51043;BME280;37078;45.806;9.084;2022-09-28T07:28:17;97627.75;;;22.83;47.17
51043;BME280;37078;45.806;9.084;2022-09-28T07:30:42;97640.34;;;22.88;47.23
51043;BME280;37078;45.806;9.084;2022-09-28T07:33:10;97643.94;;;22.92;47.19
51043;BME280;37078;45.806;9.084;2022-09-28T07:35:37;97640.44;;;22.91;47.09
51043;BME280;37078;45.806;9.084;2022-09-28T07:38:06;97646.88;;;22.99;47.12
51043;BME280;37078;45.806;9.084;2022-09-28T07:40:32;97648.22;;;23.05;47.23
51043;BME280;37078;45.806;9.084;2022-09-28T07:43:17;97649.13;;;23.09;47.12
51043;BME280;37078;45.806;9.084;2022-09-28T07:45:48;97628.41;;;23.04;47.05
51043;BME280;37078;45.806;9.084;2022-09-28T07:48:14;97636.09;;;23.15;46.93
51043;BME280;37078;45.806;9.084;2022-09-28T07:50:53;97643.22;;;23.19;47.11
51043;BME280;37078;45.806;9.084;2022-09-28T07:53:20;97643.22;;;23.19;47.01
51043;BME280;37078;45.806;9.084;2022-09-28T07:55:56;97634.94;;;23.16;46.92
51043;BME280;37078;45.806;9.084;2022-09-28T07:58:21;97660.94;;;23.29;46.96
51043;BME280;37078;45.806;9.084;2022-09-28T08:00:48;97664.56;;;23.33;46.79
51043;BME280;37078;45.806;9.084;2022-09-28T08:03:18;97655.25;;;23.34;46.62
51043;BME280;37078;45.806;9.084;2022-09-28T08:05:46;97657.19;;;23.34;46.59
51043;BME280;37078;45.806;9.084;2022-09-28T08:08:12;97654.47;;;23.34;46.77
51043;BME280;37078;45.806;9.084;2022-09-28T08:10:41;97654.47;;;23.34;46.93
51043;BME280;37078;45.806;9.084;2022-09-28T08:13:07;97654.13;;;23.35;46.79
51043;BME280;37078;45.806;9.084;2022-09-28T08:15:33;97658.88;;;23.38;46.70
51043;BME280;37078;45.806;9.084;2022-09-28T08:18:05;97660.03;;;23.37;46.79
51043;BME280;37078;45.806;9.084;2022-09-28T08:20:31;97668.38;;;23.44;46.72
51043;BME280;37078;45.806;9.084;2022-09-28T08:23:16;97663.28;;;23.43;46.57
51043;BME280;37078;45.806;9.084;2022-09-28T08:25:48;97672.34;;;23.47;46.79
51043;BME280;37078;45.806;9.084;2022-09-28T08:28:15;97668.03;;;23.46;46.62
51043;BME280;37078;45.806;9.084;2022-09-28T08:30:44;97672.78;;;23.49;46.66
51043;BME280;37078;45.806;9.084;2022-09-28T08:33:15;97652.06;;;23.44;46.53
51043;BME280;37078;45.806;9.084;2022-09-28T08:35:42;97652.53;;;23.46;46.70
51043;BME280;37078;45.806;9.084;2022-09-28T08:38:09;97640.94;;;23.49;46.40
51043;BME280;37078;45.806;9.084;2022-09-28T08:40:50;97646.25;;;23.58;46.52
51043;BME280;37078;45.806;9.084;2022-09-28T08:46:11;97643.16;;;23.60;46.69
51043;BME280;37078;45.806;9.084;2022-09-28T08:48:51;97652.59;;;23.50;46.69
51043;BME280;37078;45.806;9.084;2022-09-28T08:51:27;97649.22;;;23.41;46.31
51043;BME280;37078;45.806;9.084;2022-09-28T08:56:56;97654.72;;;23.56;46.27
51043;BME280;37078;45.806;9.084;2022-09-28T08:59:30;97656.41;;;23.61;46.03
51043;BME280;37078;45.806;9.084;2022-09-28T09:02:01;97656.13;;;23.63;46.09
51043;BME280;37078;45.806;9.084;2022-09-28T09:04:28;97629.91;;;23.58;46.17
51043;BME280;37078;45.806;9.084;2022-09-28T09:07:23;97635.22;;;23.67;46.20
51043;BME280;37078;45.806;9.084;2022-09-28T09:13:17;97626.47;;;23.73;46.25
51043;BME280;37078;45.806;9.084;2022-09-28T09:16:08;97632.00;;;23.77;46.04
51043;BME280;37078;45.806;9.084;2022-09-28T09:18:41;97631.63;;;23.78;46.16
51043;BME280;37078;45.806;9.084;2022-09-28T09:21:29;97622.94;;;23.73;45.98
51043;BME280;37078;45.806;9.084;2022-09-28T09:24:09;97626.56;;;23.77;46.17
51043;BME280;37078;45.806;9.084;2022-09-28T09:26:39;97607.75;;;23.72;46.27
51043;BME280;37078;45.806;9.084;2022-09-28T09:29:28;97605.94;;;23.76;46.25
51043;BME280;37078;45.806;9.084;2022-09-28T09:45:25;97587.94;;;23.87;46.30
51043;BME280;37078;45.806;9.084;2022-09-28T09:50:32;97589.09;;;23.86;46.37
51043;BME280;37078;45.806;9.084;2022-09-28T09:55:41;97598.16;;;23.90;46.37
51043;BME280;37078;45.806;9.084;2022-09-28T09:58:16;97592.34;;;23.92;46.27
51043;BME280;37078;45.806;9.084;2022-09-28T10:00:46;97596.22;;;23.91;46.41
51043;BME280;37078;45.806;9.084;2022-09-28T10:03:20;97599.00;;;23.94;46.30
51043;BME280;37078;45.806;9.084;2022-09-28T10:05:52;97590.41;;;23.92;46.43
51043;BME280;37078;45.806;9.084;2022-09-28T10:08:20;97591.56;;;23.91;46.29
51043;BME280;37078;45.806;9.084;2022-09-28T10:10:51;97573.19;;;23.88;46.55
51043;BME280;37078;45.806;9.084;2022-09-28T10:13:17;97585.38;;;23.94;46.45
51043;BME280;37078;45.806;9.084;2022-09-28T10:15:43;97574.19;;;23.96;46.33
51043;BME280;37078;45.806;9.084;2022-09-28T10:18:13;97569.88;;;23.95;46.45
51043;BME280;37078;45.806;9.084;2022-09-28T10:20:42;97563.63;;;23.94;46.29
51043;BME280;37078;45.806;9.084;2022-09-28T10:23:24;97572.66;;;23.98;46.54
51043;BME280;37078;45.806;9.084;2022-09-28T10:25:53;97567.22;;;23.98;46.51
51043;BME280;37078;45.806;9.084;2022-09-28T10:28:28;97562.25;;;24.00;46.41
51043;BME280;37078;45.806;9.084;2022-09-28T10:30:57;97556.78;;;24.00;46.16
51043;BME280;37078;45.806;9.084;2022-09-28T10:33:31;97559.06;;;23.98;46.32
51043;BME280;37078;45.806;9.084;2022-09-28T10:35:59;97555.66;;;24.01;46.25
51043;BME280;37078;45.806;9.084;2022-09-28T10:38:27;97552.03;;;23.97;46.20
51043;BME280;37078;45.806;9.084;2022-09-28T10:40:57;97558.44;;;23.89;45.73
51043;BME280;37078;45.806;9.084;2022-09-28T10:43:32;97560.19;;;23.81;45.56
51043;BME280;37078;45.806;9.084;2022-09-28T10:46:09;97556.28;;;23.79;45.63
51043;BME280;37078;45.806;9.084;2022-09-28T10:54:14;97556.84;;;23.72;45.49
51043;BME280;37078;45.806;9.084;2022-09-28T10:56:41;97547.47;;;23.70;45.17
51043;BME280;37078;45.806;9.084;2022-09-28T10:59:35;97548.69;;;23.72;45.54
51043;BME280;37078;45.806;9.084;2022-09-28T11:02:05;97552.56;;;23.71;45.53
51043;BME280;37078;45.806;9.084;2022-09-28T11:04:41;97546.81;;;23.61;45.82
51043;BME280;37078;45.806;9.084;2022-09-28T11:07:23;97550.56;;;23.68;45.82
51043;BME280;37078;45.806;9.084;2022-09-28T11:09:50;97558.47;;;23.73;45.79
51043;BME280;37078;45.806;9.084;2022-09-28T11:12:30;97560.03;;;23.74;45.92
51043;BME280;37078;45.806;9.084;2022-09-28T11:15:01;97553.34;;;23.72;45.84
51043;BME280;37078;45.806;9.084;2022-09-28T11:17:38;97559.56;;;23.72;45.95
51043;BME280;37078;45.806;9.084;2022-09-28T11:22:52;97559.94;;;23.71;46.16
51043;BME280;37078;45.806;9.084;2022-09-28T11:25:24;97562.66;;;23.71;46.22
51043;BME280;37078;45.806;9.084;2022-09-28T11:33:11;97565.03;;;23.72;46.07
51043;BME280;37078;45.806;9.084;2022-09-28T11:38:35;97554.66;;;23.78;46.00
51043;BME280;37078;45.806;9.084;2022-09-28T11:46:39;97542.66;;;23.79;45.81
51043;BME280;37078;45.806;9.084;2022-09-28T11:49:39;97531.84;;;23.82;45.65
51043;BME280;37078;45.806;9.084;2022-09-28T11:52:16;97522.13;;;23.81;45.79
51043;BME280;37078;45.806;9.084;2022-09-28T11:55:08;97511.50;;;23.76;45.97
51043;BME280;37078;45.806;9.084;2022-09-28T11:57:41;97515.47;;;23.79;45.61
51043;BME280;37078;45.806;9.084;2022-09-28T12:00:18;97529.50;;;23.81;45.93
51043;BME280;37078;45.806;9.084;2022-09-28T12:02:49;97527.91;;;23.80;45.75
51043;BME280;37078;45.806;9.084;2022-09-28T12:05:22;97518.88;;;23.76;45.86
51043;BME280;37078;45.806;9.084;2022-09-28T12:07:57;97510.00;;;23.79;45.89
51043;BME280;37078;45.806;9.084;2022-09-28T12:10:38;97504.84;;;23.74;45.73
51043;BME280;37078;45.806;9.084;2022-09-28T12:13:11;97508.34;;;23.90;45.65
51043;BME280;37078;45.806;9.084;2022-09-28T12:18:24;97501.63;;;24.03;45.45
51043;BME280;37078;45.806;9.084;2022-09-28T12:21:01;97493.47;;;24.03;45.17
51043;BME280;37078;45.806;9.084;2022-09-28T12:23:32;97491.28;;;24.09;45.30
51043;BME280;37078;45.806;9.084;2022-09-28T12:26:02;97497.50;;;24.09;45.11
51043;BME280;37078;45.806;9.084;2022-09-28T12:28:38;97489.28;;;24.06;44.92
51043;BME280;37078;45.806;9.084;2022-09-28T12:31:15;97490.91;;;24.10;45.14
51043;BME280;37078;45.806;9.084;2022-09-28T12:33:45;97498.00;;;24.15;45.18
51043;BME280;37078;45.806;9.084;2022-09-28T12:38:56;97502.69;;;23.99;45.36
51043;BME280;37078;45.806;9.084;2022-09-28T12:41:55;97486.91;;;23.89;45.37
51043;BME280;37078;45.806;9.084;2022-09-28T13:01:05;97472.50;;;23.88;45.96
51043;BME280;37078;45.806;9.084;2022-09-28T13:10:12;97453.47;;;23.88;46.15
51043;BME280;37078;45.806;9.084;2022-09-28T13:18:41;97456.56;;;23.71;46.44
51043;BME280;37078;45.806;9.084;2022-09-28T13:24:03;97446.81;;;23.70;46.39
51043;BME280;37078;45.806;9.084;2022-09-28T13:26:39;97428.72;;;23.62;46.32
51043;BME280;37078;45.806;9.084;2022-09-28T13:29:16;97442.16;;;23.70;46.14
51043;BME280;37078;45.806;9.084;2022-09-28T13:31:54;97438.66;;;23.70;45.88
51043;BME280;37078;45.806;9.084;2022-09-28T13:34:24;97446.03;;;23.69;46.40
51043;BME280;37078;45.806;9.084;2022-09-28T13:42:11;97441.75;;;23.68;46.29
51043;BME280;37078;45.806;9.084;2022-09-28T13:45:01;97425.13;;;23.57;46.03
51043;BME280;37078;45.806;9.084;2022-09-28T13:53:35;97446.13;;;23.57;46.30
51043;BME280;37078;45.806;9.084;2022-09-28T13:58:42;97443.91;;;23.47;46.53
51043;BME280;37078;45.806;9.084;2022-09-28T14:01:13;97437.69;;;23.46;46.48
51043;BME280;37078;45.806;9.084;2022-09-28T14:06:24;97441.88;;;23.44;46.57
51043;BME280;37078;45.806;9.084;2022-09-28T14:16:40;97428.56;;;23.39;46.40
51043;BME280;37078;45.806;9.084;2022-09-28T14:19:15;97422.34;;;23.38;46.13
51043;BME280;37078;45.806;9.084;2022-09-28T14:30:21;97422.94;;;23.95;44.88
51043;BME280;37078;45.806;9.084;2022-09-28T14:32:58;97415.22;;;23.81;45.16
51043;BME280;37078;45.806;9.084;2022-09-28T14:37:54;97415.31;;;24.04;44.93
51043;BME280;37078;45.806;9.084;2022-09-28T14:40:59;97410.34;;;24.06;44.74
51043;BME280;37078;45.806;9.084;2022-09-28T14:48:49;97402.50;;;23.69;45.55
51043;BME280;37078;45.806;9.084;2022-09-28T14:54:33;97407.22;;;23.56;45.99
51043;BME280;37078;45.806;9.084;2022-09-28T14:56:55;97402.03;;;23.51;46.04
51043;BME280;37078;45.806;9.084;2022-09-28T14:59:30;97408.31;;;23.52;46.19
51043;BME280;37078;45.806;9.084;2022-09-28T15:02:07;97407.22;;;23.56;45.98
51043;BME280;37078;45.806;9.084;2022-09-28T15:09:48;97401.78;;;23.72;46.17
51043;BME280;37078;45.806;9.084;2022-09-28T15:12:17;97405.28;;;23.89;45.72
51043;BME280;37078;45.806;9.084;2022-09-28T15:14:56;97400.94;;;24.03;45.56
51043;BME280;37078;45.806;9.084;2022-09-28T15:17:26;97391.63;;;24.04;45.71
51043;BME280;37078;45.806;9.084;2022-09-28T15:19:58;97388.66;;;24.29;45.30
51043;BME280;37078;45.806;9.084;2022-09-28T15:22:27;97387.78;;;24.83;44.08
51043;BME280;37078;45.806;9.084;2022-09-28T15:24:59;97386.78;;;24.72;44.23
51043;BME280;37078;45.806;9.084;2022-09-28T15:27:34;97386.13;;;24.78;44.10
51043;BME280;37078;45.806;9.084;2022-09-28T15:30:24;97389.97;;;24.35;44.74
51043;BME280;37078;45.806;9.084;2022-09-28T15:32:47;97373.34;;;24.05;45.45
51043;BME280;37078;45.806;9.084;2022-09-28T15:35:21;97377.72;;;23.90;45.91
51043;BME280;37078;45.806;9.084;2022-09-28T15:37:47;97380.53;;;23.78;46.25
51043;BME280;37078;45.806;9.084;2022-09-28T15:42:49;97376.78;;;23.67;46.49
51043;BME280;37078;45.806;9.084;2022-09-28T15:45:21;97385.69;;;23.64;46.25
51043;BME280;37078;45.806;9.084;2022-09-28T15:48:51;97389.84;;;23.61;46.60
51043;BME280;37078;45.806;9.084;2022-09-28T15:50:56;97399.94;;;23.61;46.50
51043;BME280;37078;45.806;9.084;2022-09-28T15:53:24;97398.63;;;23.54;46.32
51043;BME280;37078;45.806;9.084;2022-09-28T15:55:50;97395.91;;;23.54;46.11
51043;BME280;37078;45.806;9.084;2022-09-28T15:58:16;97407.94;;;23.53;46.18
51043;BME280;37078;45.806;9.084;2022-09-28T16:00:50;97386.28;;;23.41;46.58
51043;BME280;37078;45.806;9.084;2022-09-28T16:03:36;97398.53;;;23.51;46.58
51043;BME280;37078;45.806;9.084;2022-09-28T16:06:09;97391.47;;;23.46;46.65
51043;BME280;37078;45.806;9.084;2022-09-28T16:11:23;97411.34;;;23.50;46.86
51043;BME280;37078;45.806;9.084;2022-09-28T16:16:44;97399.25;;;23.48;46.92